sensor_id;sensor_type;location;lat;lon;timestamp;P1;durP1;ratioP1;P2;durP2;ratioP2
35518;SDS011;21627;48.216;16.482;2022-08-16T00:01:19;3.05;;;2.63;;
35518;SDS011;21627;48.216;16.482;2022-08-16T00:03:50;4.40;;;3.35;;
35518;SDS011;21627;48.216;16.482;2022-08-16T00:06:19;4.22;;;2.72;;
35518;SDS011;21627;48.216;16.482;2022-08-16T00:08:48;4.50;;;2.72;;
35518;SDS011;21627;48.216;16.482;2022-08-16T00:11:17;3.60;;;2.60;;
35518;SDS011;21627;48.216;16.482;2022-08-16T00:13:47;4.28;;;2.92;;
35518;SDS011;21627;48.216;16.482;2022-08-16T00:16:24;8.02;;;3.15;;
35518;SDS011;21627;48.216;16.482;2022-08-16T00:19:21;6.07;;;2.90;;
35518;SDS011;21627;48.216;16.482;2022-08-16T00:21:54;9.63;;;3.20;;
35518;SDS011;21627;48.216;16.482;2022-08-16T00:24:28;19.83;;;3.22;;
35518;SDS011;21627;48.216;16.482;2022-08-16T00:26:59;4.05;;;3.05;;
35518;SDS011;21627;48.216;16.482;2022-08-16T00:29:27;11.70;;;4.97;;
35518;SDS011;21627;48.216;16.482;2022-08-16T00:31:56;10.43;;;2.78;;
35518;SDS011;21627;48.216;16.482;2022-08-16T00:34:35;3.75;;;2.95;;
35518;SDS011;21627;48.216;16.482;2022-08-16T00:37:19;4.68;;;2.60;;
35518;SDS011;21627;48.216;16.482;2022-08-16T00:39:50;5.22;;;2.65;;
35518;SDS011;21627;48.216;16.482;2022-08-16T00:42:27;5.25;;;2.40;;
35518;SDS011;21627;48.216;16.482;2022-08-16T00:45:00;3.80;;;2.67;;
35518;SDS011;21627;48.216;16.482;2022-08-16T00:47:41;2.50;;;2.25;;
35518;SDS011;21627;48.216;16.482;2022-08-16T00:50:15;5.63;;;2.63;;
35518;SDS011;21627;48.216;16.482;2022-08-16T00:53:03;3.15;;;2.25;;
35518;SDS011;21627;48.216;16.482;2022-08-16T00:55:33;3.28;;;2.30;;
35518;SDS011;21627;48.216;16.482;2022-08-16T00:58:04;2.85;;;2.28;;
35518;SDS011;21627;48.216;16.482;2022-08-16T01:00:41;3.30;;;2.47;;
35518;SDS011;21627;48.216;16.482;2022-08-16T01:03:21;3.65;;;2.70;;
35518;SDS011;21627;48.216;16.482;2022-08-16T01:05:55;5.53;;;2.42;;
35518;SDS011;21627;48.216;16.482;2022-08-16T01:08:26;4.80;;;2.38;;
35518;SDS011;21627;48.216;16.482;2022-08-16T01:11:02;3.50;;;2.90;;
35518;SDS011;21627;48.216;16.482;2022-08-16T01:13:32;5.50;;;2.67;;
35518;SDS011;21627;48.216;16.482;2022-08-16T01:16:04;3.67;;;2.33;;
35518;SDS011;21627;48.216;16.482;2022-08-16T01:21:49;6.72;;;2.55;;
35518;SDS011;21627;48.216;16.482;2022-08-16T01:24:58;4.53;;;3.15;;
35518;SDS011;21627;48.216;16.482;2022-08-16T01:27:40;4.13;;;2.50;;
35518;SDS011;21627;48.216;16.482;2022-08-16T01:30:15;4.13;;;3.05;;
35518;SDS011;21627;48.216;16.482;2022-08-16T01:32:53;3.08;;;2.72;;
35518;SDS011;21627;48.216;16.482;2022-08-16T01:35:58;4.72;;;3.17;;
35518;SDS011;21627;48.216;16.482;2022-08-16T01:38:39;4.68;;;3.00;;
35518;SDS011;21627;48.216;16.482;2022-08-16T01:41:22;5.78;;;3.53;;
35518;SDS011;21627;48.216;16.482;2022-08-16T01:43:56;4.35;;;2.88;;
35518;SDS011;21627;48.216;16.482;2022-08-16T01:46:34;7.60;;;3.15;;
35518;SDS011;21627;48.216;16.482;2022-08-16T01:49:10;6.10;;;2.90;;
35518;SDS011;21627;48.216;16.482;2022-08-16T01:51:45;3.03;;;2.28;;
35518;SDS011;21627;48.216;16.482;2022-08-16T01:54:19;3.58;;;2.70;;
35518;SDS011;21627;48.216;16.482;2022-08-16T01:56:56;4.95;;;2.33;;
35518;SDS011;21627;48.216;16.482;2022-08-16T01:59:26;3.95;;;2.53;;
35518;SDS011;21627;48.216;16.482;2022-08-16T02:01:55;4.10;;;2.40;;
35518;SDS011;21627;48.216;16.482;2022-08-16T02:04:26;13.85;;;2.47;;
35518;SDS011;21627;48.216;16.482;2022-08-16T02:07:15;7.20;;;2.28;;
35518;SDS011;21627;48.216;16.482;2022-08-16T02:09:44;3.40;;;2.15;;
35518;SDS011;21627;48.216;16.482;2022-08-16T02:12:23;4.40;;;2.03;;
35518;SDS011;21627;48.216;16.482;2022-08-16T02:15:12;6.05;;;2.10;;
35518;SDS011;21627;48.216;16.482;2022-08-16T02:17:41;8.40;;;2.17;;
35518;SDS011;21627;48.216;16.482;2022-08-16T02:20:08;3.42;;;2.08;;
35518;SDS011;21627;48.216;16.482;2022-08-16T02:22:37;2.83;;;2.00;;
35518;SDS011;21627;48.216;16.482;2022-08-16T02:25:09;6.47;;;2.40;;
35518;SDS011;21627;48.216;16.482;2022-08-16T02:27:40;4.45;;;2.00;;
35518;SDS011;21627;48.216;16.482;2022-08-16T02:30:18;6.18;;;2.40;;
35518;SDS011;21627;48.216;16.482;2022-08-16T02:33:10;4.82;;;2.50;;
35518;SDS011;21627;48.216;16.482;2022-08-16T02:35:37;5.22;;;2.42;;
35518;SDS011;21627;48.216;16.482;2022-08-16T02:38:20;3.78;;;1.92;;
35518;SDS011;21627;48.216;16.482;2022-08-16T02:40:49;5.28;;;2.25;;
35518;SDS011;21627;48.216;16.482;2022-08-16T02:43:19;3.15;;;2.15;;
35518;SDS011;21627;48.216;16.482;2022-08-16T02:45:52;6.45;;;2.00;;
35518;SDS011;21627;48.216;16.482;2022-08-16T02:48:21;2.88;;;2.00;;
35518;SDS011;21627;48.216;16.482;2022-08-16T02:50:59;5.03;;;2.40;;
35518;SDS011;21627;48.216;16.482;2022-08-16T02:53:38;5.50;;;2.38;;
35518;SDS011;21627;48.216;16.482;2022-08-16T02:56:14;9.20;;;2.20;;
35518;SDS011;21627;48.216;16.482;2022-08-16T02:58:43;5.38;;;1.63;;
35518;SDS011;21627;48.216;16.482;2022-08-16T03:01:17;5.75;;;2.55;;
35518;SDS011;21627;48.216;16.482;2022-08-16T03:03:59;3.50;;;2.15;;
35518;SDS011;21627;48.216;16.482;2022-08-16T03:06:49;5.22;;;2.33;;
35518;SDS011;21627;48.216;16.482;2022-08-16T03:09:22;2.92;;;2.20;;
35518;SDS011;21627;48.216;16.482;2022-08-16T03:11:55;5.03;;;2.10;;
35518;SDS011;21627;48.216;16.482;2022-08-16T03:14:22;2.80;;;1.88;;
35518;SDS011;21627;48.216;16.482;2022-08-16T03:16:50;4.03;;;2.20;;
35518;SDS011;21627;48.216;16.482;2022-08-16T03:19:30;3.67;;;1.95;;
35518;SDS011;21627;48.216;16.482;2022-08-16T03:22:20;5.93;;;1.98;;
35518;SDS011;21627;48.216;16.482;2022-08-16T03:24:55;4.15;;;1.92;;
35518;SDS011;21627;48.216;16.482;2022-08-16T03:27:28;3.15;;;1.83;;
35518;SDS011;21627;48.216;16.482;2022-08-16T03:30:04;2.75;;;1.52;;
35518;SDS011;21627;48.216;16.482;2022-08-16T03:32:42;4.18;;;1.65;;
35518;SDS011;21627;48.216;16.482;2022-08-16T03:35:13;2.75;;;1.60;;
35518;SDS011;21627;48.216;16.482;2022-08-16T03:37:43;3.30;;;1.90;;
35518;SDS011;21627;48.216;16.482;2022-08-16T03:40:32;4.68;;;1.95;;
35518;SDS011;21627;48.216;16.482;2022-08-16T03:43:03;2.90;;;1.60;;
35518;SDS011;21627;48.216;16.482;2022-08-16T03:45:46;4.20;;;2.03;;
35518;SDS011;21627;48.216;16.482;2022-08-16T03:48:18;4.57;;;2.00;;
35518;SDS011;21627;48.216;16.482;2022-08-16T03:51:06;3.47;;;1.77;;
35518;SDS011;21627;48.216;16.482;2022-08-16T03:53:38;7.85;;;2.13;;
35518;SDS011;21627;48.216;16.482;2022-08-16T03:56:07;3.30;;;1.58;;
35518;SDS011;21627;48.216;16.482;2022-08-16T03:58:46;2.58;;;1.42;;
35518;SDS011;21627;48.216;16.482;2022-08-16T04:01:18;2.97;;;1.50;;
35518;SDS011;21627;48.216;16.482;2022-08-16T04:03:47;3.75;;;1.70;;
35518;SDS011;21627;48.216;16.482;2022-08-16T04:06:18;6.15;;;2.38;;
35518;SDS011;21627;48.216;16.482;2022-08-16T04:08:46;5.47;;;1.90;;
35518;SDS011;21627;48.216;16.482;2022-08-16T04:11:14;7.82;;;2.05;;
35518;SDS011;21627;48.216;16.482;2022-08-16T04:13:42;9.18;;;2.00;;
35518;SDS011;21627;48.216;16.482;2022-08-16T04:16:27;7.88;;;1.80;;
35518;SDS011;21627;48.216;16.482;2022-08-16T04:18:59;17.15;;;2.63;;
35518;SDS011;21627;48.216;16.482;2022-08-16T04:21:33;8.55;;;2.03;;
35518;SDS011;21627;48.216;16.482;2022-08-16T04:24:12;7.43;;;1.63;;
35518;SDS011;21627;48.216;16.482;2022-08-16T04:26:40;1.98;;;1.38;;
35518;SDS011;21627;48.216;16.482;2022-08-16T04:29:12;3.17;;;1.55;;
35518;SDS011;21627;48.216;16.482;2022-08-16T04:31:50;3.10;;;1.48;;
35518;SDS011;21627;48.216;16.482;2022-08-16T04:34:24;3.08;;;1.63;;
35518;SDS011;21627;48.216;16.482;2022-08-16T04:36:54;4.10;;;1.38;;
35518;SDS011;21627;48.216;16.482;2022-08-16T04:39:27;2.45;;;1.67;;
35518;SDS011;21627;48.216;16.482;2022-08-16T04:42:13;2.78;;;1.80;;
35518;SDS011;21627;48.216;16.482;2022-08-16T04:44:51;7.28;;;1.85;;
35518;SDS011;21627;48.216;16.482;2022-08-16T04:47:22;3.63;;;1.33;;
35518;SDS011;21627;48.216;16.482;2022-08-16T04:49:58;3.95;;;1.73;;
35518;SDS011;21627;48.216;16.482;2022-08-16T04:52:26;3.60;;;1.90;;
35518;SDS011;21627;48.216;16.482;2022-08-16T04:55:01;3.35;;;1.80;;
35518;SDS011;21627;48.216;16.482;2022-08-16T04:57:37;4.45;;;1.58;;
35518;SDS011;21627;48.216;16.482;2022-08-16T05:00:14;3.85;;;1.38;;
35518;SDS011;21627;48.216;16.482;2022-08-16T05:03:06;2.80;;;1.75;;
35518;SDS011;21627;48.216;16.482;2022-08-16T05:05:38;1.55;;;1.20;;
35518;SDS011;21627;48.216;16.482;2022-08-16T05:08:24;8.82;;;2.13;;
35518;SDS011;21627;48.216;16.482;2022-08-16T05:10:59;7.10;;;1.65;;
35518;SDS011;21627;48.216;16.482;2022-08-16T05:13:34;2.83;;;1.80;;
35518;SDS011;21627;48.216;16.482;2022-08-16T05:16:09;4.18;;;1.98;;
35518;SDS011;21627;48.216;16.482;2022-08-16T05:18:49;5.15;;;1.50;;
35518;SDS011;21627;48.216;16.482;2022-08-16T05:21:18;5.03;;;1.83;;
35518;SDS011;21627;48.216;16.482;2022-08-16T05:23:48;3.40;;;1.50;;
35518;SDS011;21627;48.216;16.482;2022-08-16T05:26:27;5.32;;;1.75;;
35518;SDS011;21627;48.216;16.482;2022-08-16T05:28:58;6.93;;;1.90;;
35518;SDS011;21627;48.216;16.482;2022-08-16T05:31:29;18.02;;;1.83;;
35518;SDS011;21627;48.216;16.482;2022-08-16T05:34:00;3.10;;;1.85;;
35518;SDS011;21627;48.216;16.482;2022-08-16T05:36:29;3.85;;;1.88;;
35518;SDS011;21627;48.216;16.482;2022-08-16T05:39:06;3.92;;;1.88;;
35518;SDS011;21627;48.216;16.482;2022-08-16T05:41:35;6.13;;;1.95;;
35518;SDS011;21627;48.216;16.482;2022-08-16T05:44:11;5.60;;;2.03;;
35518;SDS011;21627;48.216;16.482;2022-08-16T05:46:55;2.78;;;1.80;;
35518;SDS011;21627;48.216;16.482;2022-08-16T05:49:29;3.05;;;1.85;;
35518;SDS011;21627;48.216;16.482;2022-08-16T05:52:05;2.60;;;1.50;;
35518;SDS011;21627;48.216;16.482;2022-08-16T05:54:40;3.17;;;1.80;;
35518;SDS011;21627;48.216;16.482;2022-08-16T05:57:14;3.13;;;1.60;;
35518;SDS011;21627;48.216;16.482;2022-08-16T05:59:46;3.40;;;1.60;;
35518;SDS011;21627;48.216;16.482;2022-08-16T06:02:25;2.60;;;1.35;;
35518;SDS011;21627;48.216;16.482;2022-08-16T06:05:09;2.55;;;1.75;;
35518;SDS011;21627;48.216;16.482;2022-08-16T06:07:39;1.85;;;1.38;;
35518;SDS011;21627;48.216;16.482;2022-08-16T06:10:08;4.75;;;1.60;;
35518;SDS011;21627;48.216;16.482;2022-08-16T06:12:37;3.88;;;2.08;;
35518;SDS011;21627;48.216;16.482;2022-08-16T06:15:07;2.13;;;1.42;;
35518;SDS011;21627;48.216;16.482;2022-08-16T06:17:42;5.28;;;1.85;;
35518;SDS011;21627;48.216;16.482;2022-08-16T06:20:14;3.35;;;1.60;;
35518;SDS011;21627;48.216;16.482;2022-08-16T06:22:50;2.70;;;1.38;;
35518;SDS011;21627;48.216;16.482;2022-08-16T06:25:30;1.67;;;1.50;;
35518;SDS011;21627;48.216;16.482;2022-08-16T06:30:38;3.88;;;1.80;;
35518;SDS011;21627;48.216;16.482;2022-08-16T06:33:12;2.25;;;1.55;;
35518;SDS011;21627;48.216;16.482;2022-08-16T06:35:47;3.53;;;1.80;;
35518;SDS011;21627;48.216;16.482;2022-08-16T06:38:23;1.83;;;1.48;;
35518;SDS011;21627;48.216;16.482;2022-08-16T06:41:00;9.73;;;1.63;;
35518;SDS011;21627;48.216;16.482;2022-08-16T06:43:39;6.20;;;1.70;;
35518;SDS011;21627;48.216;16.482;2022-08-16T06:46:08;2.70;;;1.48;;
35518;SDS011;21627;48.216;16.482;2022-08-16T06:49:00;5.28;;;1.50;;
35518;SDS011;21627;48.216;16.482;2022-08-16T06:51:30;3.65;;;1.60;;
35518;SDS011;21627;48.216;16.482;2022-08-16T06:54:13;2.83;;;1.55;;
35518;SDS011;21627;48.216;16.482;2022-08-16T06:56:40;3.00;;;1.67;;
35518;SDS011;21627;48.216;16.482;2022-08-16T06:59:08;2.03;;;1.30;;
35518;SDS011;21627;48.216;16.482;2022-08-16T07:01:38;2.47;;;1.70;;
35518;SDS011;21627;48.216;16.482;2022-08-16T07:04:18;4.70;;;1.98;;
35518;SDS011;21627;48.216;16.482;2022-08-16T07:06:59;3.30;;;1.73;;
35518;SDS011;21627;48.216;16.482;2022-08-16T07:09:28;4.75;;;1.67;;
35518;SDS011;21627;48.216;16.482;2022-08-16T07:11:56;3.67;;;1.80;;
35518;SDS011;21627;48.216;16.482;2022-08-16T07:14:33;4.32;;;1.40;;
35518;SDS011;21627;48.216;16.482;2022-08-16T07:17:01;8.00;;;1.75;;
35518;SDS011;21627;48.216;16.482;2022-08-16T07:19:33;5.97;;;1.67;;
35518;SDS011;21627;48.216;16.482;2022-08-16T07:22:21;10.90;;;2.08;;
35518;SDS011;21627;48.216;16.482;2022-08-16T07:25:07;3.05;;;1.80;;
35518;SDS011;21627;48.216;16.482;2022-08-16T07:27:38;4.60;;;1.95;;
35518;SDS011;21627;48.216;16.482;2022-08-16T07:30:07;3.38;;;2.03;;
35518;SDS011;21627;48.216;16.482;2022-08-16T07:32:57;9.90;;;1.70;;
35518;SDS011;21627;48.216;16.482;2022-08-16T07:35:25;4.82;;;1.67;;
35518;SDS011;21627;48.216;16.482;2022-08-16T07:37:53;4.28;;;1.75;;
35518;SDS011;21627;48.216;16.482;2022-08-16T07:40:20;3.80;;;1.80;;
35518;SDS011;21627;48.216;16.482;2022-08-16T07:43:07;5.38;;;1.90;;
35518;SDS011;21627;48.216;16.482;2022-08-16T07:45:36;4.47;;;2.00;;
35518;SDS011;21627;48.216;16.482;2022-08-16T07:48:08;6.05;;;2.08;;
35518;SDS011;21627;48.216;16.482;2022-08-16T07:50:37;4.97;;;1.90;;
35518;SDS011;21627;48.216;16.482;2022-08-16T07:53:24;9.63;;;2.90;;
35518;SDS011;21627;48.216;16.482;2022-08-16T07:55:54;5.43;;;2.33;;
35518;SDS011;21627;48.216;16.482;2022-08-16T07:58:23;4.45;;;1.90;;
35518;SDS011;21627;48.216;16.482;2022-08-16T08:01:01;3.58;;;1.98;;
35518;SDS011;21627;48.216;16.482;2022-08-16T08:03:41;3.25;;;1.75;;
35518;SDS011;21627;48.216;16.482;2022-08-16T08:06:18;4.15;;;1.98;;
35518;SDS011;21627;48.216;16.482;2022-08-16T08:08:50;2.40;;;1.80;;
35518;SDS011;21627;48.216;16.482;2022-08-16T08:11:23;3.22;;;1.92;;
35518;SDS011;21627;48.216;16.482;2022-08-16T08:13:54;3.58;;;1.80;;
35518;SDS011;21627;48.216;16.482;2022-08-16T08:16:29;7.05;;;1.77;;
35518;SDS011;21627;48.216;16.482;2022-08-16T08:18:58;5.18;;;2.22;;
35518;SDS011;21627;48.216;16.482;2022-08-16T08:21:28;3.35;;;1.70;;
35518;SDS011;21627;48.216;16.482;2022-08-16T08:24:17;6.45;;;1.92;;
35518;SDS011;21627;48.216;16.482;2022-08-16T08:26:46;6.18;;;1.90;;
35518;SDS011;21627;48.216;16.482;2022-08-16T08:29:18;2.42;;;1.58;;
35518;SDS011;21627;48.216;16.482;2022-08-16T08:31:50;2.70;;;1.75;;
35518;SDS011;21627;48.216;16.482;2022-08-16T08:34:19;2.40;;;1.63;;
35518;SDS011;21627;48.216;16.482;2022-08-16T08:36:48;2.17;;;1.70;;
35518;SDS011;21627;48.216;16.482;2022-08-16T08:39:22;3.85;;;1.75;;
35518;SDS011;21627;48.216;16.482;2022-08-16T08:41:50;2.95;;;1.88;;
35518;SDS011;21627;48.216;16.482;2022-08-16T08:44:18;2.63;;;1.73;;
35518;SDS011;21627;48.216;16.482;2022-08-16T08:47:02;3.75;;;1.85;;
35518;SDS011;21627;48.216;16.482;2022-08-16T08:49:37;2.88;;;1.60;;
35518;SDS011;21627;48.216;16.482;2022-08-16T08:52:15;2.20;;;1.85;;
35518;SDS011;21627;48.216;16.482;2022-08-16T08:55:05;2.58;;;1.63;;
35518;SDS011;21627;48.216;16.482;2022-08-16T08:57:38;3.13;;;1.67;;
35518;SDS011;21627;48.216;16.482;2022-08-16T09:00:15;6.40;;;1.63;;
35518;SDS011;21627;48.216;16.482;2022-08-16T09:02:46;6.03;;;1.80;;
35518;SDS011;21627;48.216;16.482;2022-08-16T09:05:19;3.45;;;1.60;;
35518;SDS011;21627;48.216;16.482;2022-08-16T09:08:01;5.55;;;1.40;;
35518;SDS011;21627;48.216;16.482;2022-08-16T09:10:31;6.35;;;1.95;;
35518;SDS011;21627;48.216;16.482;2022-08-16T09:13:04;2.40;;;1.90;;
35518;SDS011;21627;48.216;16.482;2022-08-16T09:15:35;6.38;;;1.60;;
35518;SDS011;21627;48.216;16.482;2022-08-16T09:18:03;7.63;;;2.03;;
35518;SDS011;21627;48.216;16.482;2022-08-16T09:20:51;3.00;;;1.85;;
35518;SDS011;21627;48.216;16.482;2022-08-16T09:23:25;3.35;;;1.67;;
35518;SDS011;21627;48.216;16.482;2022-08-16T09:26:05;4.05;;;1.60;;
35518;SDS011;21627;48.216;16.482;2022-08-16T09:28:56;3.03;;;1.70;;
35518;SDS011;21627;48.216;16.482;2022-08-16T09:31:43;1.85;;;1.55;;
35518;SDS011;21627;48.216;16.482;2022-08-16T09:34:12;6.70;;;1.77;;
35518;SDS011;21627;48.216;16.482;2022-08-16T09:36:44;2.70;;;1.73;;
35518;SDS011;21627;48.216;16.482;2022-08-16T09:39:15;3.22;;;1.65;;
35518;SDS011;21627;48.216;16.482;2022-08-16T09:41:44;2.38;;;2.10;;
35518;SDS011;21627;48.216;16.482;2022-08-16T09:44:20;5.07;;;1.52;;
35518;SDS011;21627;48.216;16.482;2022-08-16T09:47:11;3.25;;;1.48;;
35518;SDS011;21627;48.216;16.482;2022-08-16T09:49:39;8.02;;;1.98;;
35518;SDS011;21627;48.216;16.482;2022-08-16T09:52:07;6.22;;;2.08;;
35518;SDS011;21627;48.216;16.482;2022-08-16T09:54:36;6.05;;;2.15;;
35518;SDS011;21627;48.216;16.482;2022-08-16T09:57:09;4.25;;;1.70;;
35518;SDS011;21627;48.216;16.482;2022-08-16T09:59:37;2.92;;;1.80;;
35518;SDS011;21627;48.216;16.482;2022-08-16T10:02:07;1.90;;;1.60;;
35518;SDS011;21627;48.216;16.482;2022-08-16T10:04:53;3.38;;;1.70;;
35518;SDS011;21627;48.216;16.482;2022-08-16T10:07:24;4.20;;;1.88;;
35518;SDS011;21627;48.216;16.482;2022-08-16T10:10:10;3.22;;;1.85;;
35518;SDS011;21627;48.216;16.482;2022-08-16T10:12:55;2.92;;;1.70;;
35518;SDS011;21627;48.216;16.482;2022-08-16T10:15:42;3.70;;;1.65;;
35518;SDS011;21627;48.216;16.482;2022-08-16T10:18:21;5.63;;;1.77;;
35518;SDS011;21627;48.216;16.482;2022-08-16T10:21:08;4.78;;;1.70;;
35518;SDS011;21627;48.216;16.482;2022-08-16T10:23:37;3.20;;;1.48;;
35518;SDS011;21627;48.216;16.482;2022-08-16T10:26:08;4.25;;;2.05;;
35518;SDS011;21627;48.216;16.482;2022-08-16T10:28:55;4.43;;;1.95;;
35518;SDS011;21627;48.216;16.482;2022-08-16T10:31:24;3.28;;;1.67;;
35518;SDS011;21627;48.216;16.482;2022-08-16T10:34:11;4.13;;;2.00;;
35518;SDS011;21627;48.216;16.482;2022-08-16T10:36:58;4.57;;;1.75;;
35518;SDS011;21627;48.216;16.482;2022-08-16T10:39:28;9.70;;;1.73;;
35518;SDS011;21627;48.216;16.482;2022-08-16T10:42:08;2.42;;;1.67;;
35518;SDS011;21627;48.216;16.482;2022-08-16T10:44:39;2.03;;;1.30;;
35518;SDS011;21627;48.216;16.482;2022-08-16T10:47:07;3.35;;;1.83;;
35518;SDS011;21627;48.216;16.482;2022-08-16T10:49:37;3.53;;;2.15;;
35518;SDS011;21627;48.216;16.482;2022-08-16T10:52:04;3.97;;;1.90;;
35518;SDS011;21627;48.216;16.482;2022-08-16T10:54:44;5.13;;;1.80;;
35518;SDS011;21627;48.216;16.482;2022-08-16T10:57:31;3.90;;;2.00;;
35518;SDS011;21627;48.216;16.482;2022-08-16T11:00:00;2.08;;;1.50;;
35518;SDS011;21627;48.216;16.482;2022-08-16T11:02:48;2.47;;;1.83;;
35518;SDS011;21627;48.216;16.482;2022-08-16T11:05:26;3.10;;;1.80;;
35518;SDS011;21627;48.216;16.482;2022-08-16T11:08:15;4.30;;;1.90;;
35518;SDS011;21627;48.216;16.482;2022-08-16T11:11:04;3.47;;;1.70;;
35518;SDS011;21627;48.216;16.482;2022-08-16T11:13:47;4.78;;;1.92;;
35518;SDS011;21627;48.216;16.482;2022-08-16T11:16:31;3.72;;;1.77;;
35518;SDS011;21627;48.216;16.482;2022-08-16T11:19:18;4.22;;;1.67;;
35518;SDS011;21627;48.216;16.482;2022-08-16T11:21:48;1.90;;;1.50;;
35518;SDS011;21627;48.216;16.482;2022-08-16T11:24:36;3.83;;;1.80;;
35518;SDS011;21627;48.216;16.482;2022-08-16T11:27:17;4.53;;;2.60;;
35518;SDS011;21627;48.216;16.482;2022-08-16T11:29:53;5.88;;;1.75;;
35518;SDS011;21627;48.216;16.482;2022-08-16T11:32:23;6.60;;;1.98;;
35518;SDS011;21627;48.216;16.482;2022-08-16T11:35:00;2.75;;;1.70;;
35518;SDS011;21627;48.216;16.482;2022-08-16T11:37:41;2.90;;;1.65;;
35518;SDS011;21627;48.216;16.482;2022-08-16T11:40:39;3.33;;;1.65;;
35518;SDS011;21627;48.216;16.482;2022-08-16T11:43:25;10.57;;;2.05;;
35518;SDS011;21627;48.216;16.482;2022-08-16T11:45:56;7.88;;;1.83;;
35518;SDS011;21627;48.216;16.482;2022-08-16T11:48:46;2.83;;;1.58;;
35518;SDS011;21627;48.216;16.482;2022-08-16T11:51:13;3.17;;;2.25;;
35518;SDS011;21627;48.216;16.482;2022-08-16T11:53:41;6.90;;;1.77;;
35518;SDS011;21627;48.216;16.482;2022-08-16T11:56:08;5.05;;;1.77;;
35518;SDS011;21627;48.216;16.482;2022-08-16T11:58:40;6.05;;;1.83;;
35518;SDS011;21627;48.216;16.482;2022-08-16T12:01:07;4.55;;;1.58;;
35518;SDS011;21627;48.216;16.482;2022-08-16T12:03:38;3.65;;;1.95;;
35518;SDS011;21627;48.216;16.482;2022-08-16T12:06:16;4.38;;;1.95;;
35518;SDS011;21627;48.216;16.482;2022-08-16T12:08:55;3.05;;;2.22;;
35518;SDS011;21627;48.216;16.482;2022-08-16T12:11:27;5.63;;;1.92;;
35518;SDS011;21627;48.216;16.482;2022-08-16T12:13:58;2.08;;;1.20;;
35518;SDS011;21627;48.216;16.482;2022-08-16T12:16:30;9.82;;;1.55;;
35518;SDS011;21627;48.216;16.482;2022-08-16T12:19:04;3.00;;;1.63;;
35518;SDS011;21627;48.216;16.482;2022-08-16T12:21:38;3.15;;;1.63;;
35518;SDS011;21627;48.216;16.482;2022-08-16T12:24:25;2.67;;;1.60;;
35518;SDS011;21627;48.216;16.482;2022-08-16T12:26:53;2.80;;;1.90;;
35518;SDS011;21627;48.216;16.482;2022-08-16T12:29:21;2.42;;;1.42;;
35518;SDS011;21627;48.216;16.482;2022-08-16T12:31:55;5.90;;;1.55;;
35518;SDS011;21627;48.216;16.482;2022-08-16T12:34:37;2.97;;;1.70;;
35518;SDS011;21627;48.216;16.482;2022-08-16T12:37:21;4.65;;;1.73;;
35518;SDS011;21627;48.216;16.482;2022-08-16T12:39:51;2.67;;;1.50;;
35518;SDS011;21627;48.216;16.482;2022-08-16T12:42:22;4.30;;;1.90;;
35518;SDS011;21627;48.216;16.482;2022-08-16T12:45:02;4.75;;;2.13;;
35518;SDS011;21627;48.216;16.482;2022-08-16T12:47:34;7.50;;;1.83;;
35518;SDS011;21627;48.216;16.482;2022-08-16T12:53:07;2.25;;;1.52;;
35518;SDS011;21627;48.216;16.482;2022-08-16T12:55:35;2.28;;;1.40;;
35518;SDS011;21627;48.216;16.482;2022-08-16T12:58:09;4.13;;;1.50;;
35518;SDS011;21627;48.216;16.482;2022-08-16T13:00:57;2.45;;;1.75;;
35518;SDS011;21627;48.216;16.482;2022-08-16T13:03:27;3.72;;;1.80;;
35518;SDS011;21627;48.216;16.482;2022-08-16T13:05:57;2.80;;;1.50;;
35518;SDS011;21627;48.216;16.482;2022-08-16T13:08:28;2.70;;;1.48;;
35518;SDS011;21627;48.216;16.482;2022-08-16T13:10:58;5.75;;;1.73;;
35518;SDS011;21627;48.216;16.482;2022-08-16T13:13:27;2.13;;;1.50;;
35518;SDS011;21627;48.216;16.482;2022-08-16T13:16:02;5.88;;;2.15;;
35518;SDS011;21627;48.216;16.482;2022-08-16T13:18:46;4.15;;;1.77;;
35518;SDS011;21627;48.216;16.482;2022-08-16T13:21:19;3.03;;;1.70;;
35518;SDS011;21627;48.216;16.482;2022-08-16T13:23:49;8.23;;;1.73;;
35518;SDS011;21627;48.216;16.482;2022-08-16T13:26:21;3.60;;;1.80;;
35518;SDS011;21627;48.216;16.482;2022-08-16T13:28:52;4.72;;;1.55;;
35518;SDS011;21627;48.216;16.482;2022-08-16T13:31:19;2.10;;;1.42;;
35518;SDS011;21627;48.216;16.482;2022-08-16T13:33:51;7.22;;;1.63;;
35518;SDS011;21627;48.216;16.482;2022-08-16T13:36:24;2.10;;;1.60;;
35518;SDS011;21627;48.216;16.482;2022-08-16T13:39:12;3.08;;;1.52;;
35518;SDS011;21627;48.216;16.482;2022-08-16T13:41:39;4.20;;;1.88;;
35518;SDS011;21627;48.216;16.482;2022-08-16T13:44:06;4.65;;;1.63;;
35518;SDS011;21627;48.216;16.482;2022-08-16T13:46:34;2.03;;;1.70;;
35518;SDS011;21627;48.216;16.482;2022-08-16T13:49:04;4.30;;;1.52;;
35518;SDS011;21627;48.216;16.482;2022-08-16T13:51:31;2.10;;;1.38;;
35518;SDS011;21627;48.216;16.482;2022-08-16T13:53:59;2.85;;;1.58;;
35518;SDS011;21627;48.216;16.482;2022-08-16T13:56:30;3.90;;;1.40;;
35518;SDS011;21627;48.216;16.482;2022-08-16T13:59:04;3.38;;;1.75;;
35518;SDS011;21627;48.216;16.482;2022-08-16T14:01:49;5.05;;;1.90;;
35518;SDS011;21627;48.216;16.482;2022-08-16T14:04:26;1.98;;;1.13;;
35518;SDS011;21627;48.216;16.482;2022-08-16T14:06:56;4.95;;;2.00;;
35518;SDS011;21627;48.216;16.482;2022-08-16T14:09:26;2.28;;;1.40;;
35518;SDS011;21627;48.216;16.482;2022-08-16T14:11:57;9.52;;;1.58;;
35518;SDS011;21627;48.216;16.482;2022-08-16T14:14:29;2.80;;;1.60;;
35518;SDS011;21627;48.216;16.482;2022-08-16T14:17:07;3.35;;;1.48;;
35518;SDS011;21627;48.216;16.482;2022-08-16T14:19:35;1.58;;;1.27;;
35518;SDS011;21627;48.216;16.482;2022-08-16T14:22:13;4.93;;;1.48;;
35518;SDS011;21627;48.216;16.482;2022-08-16T14:25:09;1.92;;;1.55;;
35518;SDS011;21627;48.216;16.482;2022-08-16T14:27:42;2.88;;;1.38;;
35518;SDS011;21627;48.216;16.482;2022-08-16T14:30:10;4.18;;;1.70;;
35518;SDS011;21627;48.216;16.482;2022-08-16T14:32:41;4.40;;;1.80;;
35518;SDS011;21627;48.216;16.482;2022-08-16T14:35:17;2.30;;;1.48;;
35518;SDS011;21627;48.216;16.482;2022-08-16T14:38:09;1.60;;;1.40;;
35518;SDS011;21627;48.216;16.482;2022-08-16T14:40:44;3.13;;;1.65;;
35518;SDS011;21627;48.216;16.482;2022-08-16T14:43:20;2.97;;;1.75;;
35518;SDS011;21627;48.216;16.482;2022-08-16T14:45:49;1.63;;;1.20;;
35518;SDS011;21627;48.216;16.482;2022-08-16T14:48:20;1.98;;;1.10;;
35518;SDS011;21627;48.216;16.482;2022-08-16T14:50:52;6.90;;;1.42;;
35518;SDS011;21627;48.216;16.482;2022-08-16T14:53:21;2.08;;;1.20;;
35518;SDS011;21627;48.216;16.482;2022-08-16T14:55:51;4.78;;;1.50;;
35518;SDS011;21627;48.216;16.482;2022-08-16T14:58:19;4.53;;;1.63;;
35518;SDS011;21627;48.216;16.482;2022-08-16T15:01:04;3.97;;;1.67;;
35518;SDS011;21627;48.216;16.482;2022-08-16T15:03:35;2.60;;;1.20;;
35518;SDS011;21627;48.216;16.482;2022-08-16T15:06:03;2.00;;;1.73;;
35518;SDS011;21627;48.216;16.482;2022-08-16T15:08:31;3.17;;;1.63;;
35518;SDS011;21627;48.216;16.482;2022-08-16T15:11:02;1.52;;;1.35;;
35518;SDS011;21627;48.216;16.482;2022-08-16T15:13:33;5.22;;;1.70;;
35518;SDS011;21627;48.216;16.482;2022-08-16T15:16:01;2.47;;;1.15;;
35518;SDS011;21627;48.216;16.482;2022-08-16T15:18:30;1.42;;;1.33;;
35518;SDS011;21627;48.216;16.482;2022-08-16T15:20:59;2.17;;;1.50;;
35518;SDS011;21627;48.216;16.482;2022-08-16T15:23:28;2.70;;;1.27;;
35518;SDS011;21627;48.216;16.482;2022-08-16T15:25:59;3.25;;;1.60;;
35518;SDS011;21627;48.216;16.482;2022-08-16T15:28:30;3.85;;;1.25;;